world map with PBO marked

PBO - Airport

This information may not be accurate or current and is not valid for navigation or flight planning. No warranty of fitness for any purpose is made or implied.

flag of Western Australiaflag of Australia

Donate via PayPal

Additional information is available on the NEW Great Circle Mapper

Location
City:  Paraburdoo, Western Australia, Australia
ICAO / IATA:YPBO / PBO

Details
Type:Airport (Aerodrome, Airfield)
Latitude:23°10'16"S (-23.171110)
Longitude:117°44'43"E (117.745278)
Datum:WGS 1984
Elevation:1406 ft (429 m)
Runways:1
Longest:6995 × 148 ft (2132 × 45 m)

Time
Timezone:UTC+8 (DST+10)
Local Time:

Weather
METAR:YPBO  041400Z AUTO 13004KT 020V180 9999 -SHRA SCT050 SCT068 SCT092 30/16 Q1009

Related Locations
Nearby:
Farthest:NGD: 12099 mi / 19471 km
Anegada (The Settlement) [Capt. Auguste George Airport], Anegada, VG

Find:

   beyond  
but within

Other Information
Maps:
Sources:

  


 


Great Circle Mapper   Great Circle Mapper
Great Circle Mapper FAQ   Great Circle Mapper FAQ
  Karl's Home Page
KLSē   KLSē Home
   GC on Facebook
Airlines of the World   Airlines of the World
Donate via PayPal


Copyright © 2004-2019, Karl L. Swartz. All rights reserved.
All trademarks mentioned herein belong to their respective owners.

Please see credits for attribution and copyright information.

Karl Swartz <karl@kls2.com>
  Powered by FreeBSD
Valid HTML 4.01!
Labeled with ICRA
hCard Microformat
Geo Microformat